sensor_id;sensor_type;location;lat;lon;timestamp;pressure;altitude;pressure_sealevel;temperature;humidity
19208;BME280;9737;59.466;18.036;2023-01-01T00:01:53;96649.13;;;1.65;83.48
19208;BME280;9737;59.466;18.036;2023-01-01T00:04:21;96650.09;;;1.64;83.34
19208;BME280;9737;59.466;18.036;2023-01-01T00:06:49;96613.50;;;1.54;83.59
19208;BME280;9737;59.466;18.036;2023-01-01T00:09:17;96546.91;;;1.39;83.51
19208;BME280;9737;59.466;18.036;2023-01-01T00:12:05;96479.03;;;1.20;83.25
19208;BME280;9737;59.466;18.036;2023-01-01T00:14:32;96399.03;;;1.00;83.07
19208;BME280;9737;59.466;18.036;2023-01-01T00:17:00;96378.72;;;0.93;83.11
19208;BME280;9737;59.466;18.036;2023-01-01T00:19:28;96367.75;;;0.90;83.28
19208;BME280;9737;59.466;18.036;2023-01-01T00:21:56;96391.34;;;0.98;83.46
19208;BME280;9737;59.466;18.036;2023-01-01T00:24:35;96398.53;;;0.96;83.30
19208;BME280;9737;59.466;18.036;2023-01-01T00:27:04;96394.78;;;0.99;83.20
19208;BME280;9737;59.466;18.036;2023-01-01T00:29:32;96411.97;;;1.01;83.31
19208;BME280;9737;59.466;18.036;2023-01-01T00:32:00;96390.53;;;0.98;83.61
19208;BME280;9737;59.466;18.036;2023-01-01T00:34:28;96351.25;;;0.89;83.33
19208;BME280;9737;59.466;18.036;2023-01-01T00:36:56;96366.63;;;0.92;83.02
19208;BME280;9737;59.466;18.036;2023-01-01T00:39:24;96354.81;;;0.88;83.37
19208;BME280;9737;59.466;18.036;2023-01-01T00:41:52;96320.06;;;0.78;83.39
19208;BME280;9737;59.466;18.036;2023-01-01T00:44:21;96263.09;;;0.64;83.40
19208;BME280;9737;59.466;18.036;2023-01-01T00:46:49;96218.88;;;0.53;83.18
19208;BME280;9737;59.466;18.036;2023-01-01T00:49:19;96216.94;;;0.55;82.94
19208;BME280;9737;59.466;18.036;2023-01-01T00:51:46;96159.19;;;0.40;83.54
19208;BME280;9737;59.466;18.036;2023-01-01T00:54:14;96128.91;;;0.29;83.13
19208;BME280;9737;59.466;18.036;2023-01-01T00:56:42;96147.56;;;0.35;83.23
19208;BME280;9737;59.466;18.036;2023-01-01T00:59:10;96134.97;;;0.30;82.93
19208;BME280;9737;59.466;18.036;2023-01-01T01:01:39;96123.81;;;0.28;83.01
19208;BME280;9737;59.466;18.036;2023-01-01T01:04:07;96114.31;;;0.27;83.59
19208;BME280;9737;59.466;18.036;2023-01-01T01:06:35;96082.44;;;0.15;83.31
19208;BME280;9737;59.466;18.036;2023-01-01T01:09:03;96049.09;;;0.09;83.13
19208;BME280;9737;59.466;18.036;2023-01-01T01:11:32;95997.06;;;-0.10;83.05
19208;BME280;9737;59.466;18.036;2023-01-01T01:14:00;95976.16;;;-0.10;83.20
19208;BME280;9737;59.466;18.036;2023-01-01T01:16:30;95952.31;;;-0.15;83.40
19208;BME280;9737;59.466;18.036;2023-01-01T01:19:03;95907.47;;;-0.37;83.40
19208;BME280;9737;59.466;18.036;2023-01-01T01:21:33;95969.31;;;-0.11;83.17
19208;BME280;9737;59.466;18.036;2023-01-01T01:24:02;95996.44;;;-0.04;83.06
19208;BME280;9737;59.466;18.036;2023-01-01T01:26:32;95993.00;;;-0.05;83.26
19208;BME280;9737;59.466;18.036;2023-01-01T01:29:00;96043.88;;;0.09;83.47
19208;BME280;9737;59.466;18.036;2023-01-01T01:31:30;96071.16;;;0.15;83.38
19208;BME280;9737;59.466;18.036;2023-01-01T01:34:00;96074.28;;;0.18;83.36
19208;BME280;9737;59.466;18.036;2023-01-01T01:36:28;96098.16;;;0.23;83.27
19208;BME280;9737;59.466;18.036;2023-01-01T01:38:55;96107.47;;;0.26;83.04
19208;BME280;9737;59.466;18.036;2023-01-01T01:41:24;96092.91;;;0.23;83.07
19208;BME280;9737;59.466;18.036;2023-01-01T01:43:57;96083.75;;;0.19;83.54
19208;BME280;9737;59.466;18.036;2023-01-01T01:46:31;96061.84;;;0.12;83.13
19208;BME280;9737;59.466;18.036;2023-01-01T01:49:05;96025.22;;;0.04;83.42
19208;BME280;9737;59.466;18.036;2023-01-01T01:51:38;95981.06;;;-0.07;83.37
19208;BME280;9737;59.466;18.036;2023-01-01T01:54:10;95938.59;;;-0.17;83.09
19208;BME280;9737;59.466;18.036;2023-01-01T01:56:45;95907.69;;;-0.30;83.31
19208;BME280;9737;59.466;18.036;2023-01-01T01:59:15;95908.22;;;-0.26;83.48
19208;BME280;9737;59.466;18.036;2023-01-01T02:01:44;95901.34;;;-0.27;82.91
19208;BME280;9737;59.466;18.036;2023-01-01T02:04:13;95916.69;;;-0.24;83.30
19208;BME280;9737;59.466;18.036;2023-01-01T02:06:43;95897.09;;;-0.28;83.57
19208;BME280;9737;59.466;18.036;2023-01-01T02:09:12;95911.47;;;-0.24;82.99
19208;BME280;9737;59.466;18.036;2023-01-01T02:11:40;95920.13;;;-0.24;82.99
19208;BME280;9737;59.466;18.036;2023-01-01T02:14:08;95918.34;;;-0.23;82.99
19208;BME280;9737;59.466;18.036;2023-01-01T02:16:40;95943.81;;;-0.17;83.47
19208;BME280;9737;59.466;18.036;2023-01-01T02:19:17;95945.78;;;-0.19;83.51
19208;BME280;9737;59.466;18.036;2023-01-01T02:22:00;95982.72;;;-0.06;83.08
19208;BME280;9737;59.466;18.036;2023-01-01T02:24:52;95969.31;;;-0.11;83.01
19208;BME280;9737;59.466;18.036;2023-01-01T02:27:29;95936.97;;;-0.18;83.11
19208;BME280;9737;59.466;18.036;2023-01-01T02:30:05;95898.06;;;-0.29;83.17
19208;BME280;9737;59.466;18.036;2023-01-01T02:32:37;95892.00;;;-0.30;83.26
19208;BME280;9737;59.466;18.036;2023-01-01T02:35:11;95909.84;;;-0.25;83.16
19208;BME280;9737;59.466;18.036;2023-01-01T02:37:59;95923.56;;;-0.23;83.17
19208;BME280;9737;59.466;18.036;2023-01-01T02:40:34;95893.81;;;-0.31;83.59
19208;BME280;9737;59.466;18.036;2023-01-01T02:43:04;95885.16;;;-0.31;83.30
19208;BME280;9737;59.466;18.036;2023-01-01T02:45:34;95893.16;;;-0.33;83.08
19208;BME280;9737;59.466;18.036;2023-01-01T02:48:06;95928.47;;;-0.20;83.46
19208;BME280;9737;59.466;18.036;2023-01-01T02:50:54;95918.34;;;-0.23;83.31
19208;BME280;9737;59.466;18.036;2023-01-01T02:53:29;95888.44;;;-0.29;83.28
19208;BME280;9737;59.466;18.036;2023-01-01T02:56:04;95886.13;;;-0.32;83.31
19208;BME280;9737;59.466;18.036;2023-01-01T02:58:38;95869.00;;;-0.35;83.37
19208;BME280;9737;59.466;18.036;2023-01-01T03:01:30;95894.50;;;-0.28;83.48
19208;BME280;9737;59.466;18.036;2023-01-01T03:04:11;95913.13;;;-0.23;83.07
19208;BME280;9737;59.466;18.036;2023-01-01T03:06:49;95889.06;;;-0.35;83.39
19208;BME280;9737;59.466;18.036;2023-01-01T03:09:22;95932.56;;;-0.18;83.31
19208;BME280;9737;59.466;18.036;2023-01-01T03:11:56;95956.41;;;-0.13;83.23
19208;BME280;9737;59.466;18.036;2023-01-01T03:14:32;95964.09;;;-0.11;83.39
19208;BME280;9737;59.466;18.036;2023-01-01T03:17:09;95920.63;;;-0.20;83.75
19208;BME280;9737;59.466;18.036;2023-01-01T03:19:40;95898.06;;;-0.29;83.70
19208;BME280;9737;59.466;18.036;2023-01-01T03:22:10;95871.59;;;-0.35;83.17
19208;BME280;9737;59.466;18.036;2023-01-01T03:24:43;95831.75;;;-0.45;83.70
19208;BME280;9737;59.466;18.036;2023-01-01T03:27:15;95787.69;;;-0.56;83.46
19208;BME280;9737;59.466;18.036;2023-01-01T03:29:46;95721.03;;;-0.84;83.29
19208;BME280;9737;59.466;18.036;2023-01-01T03:32:22;95718.16;;;-0.73;83.69
19208;BME280;9737;59.466;18.036;2023-01-01T03:35:13;95697.91;;;-0.79;83.07
19208;BME280;9737;59.466;18.036;2023-01-01T03:37:45;95684.22;;;-0.81;83.65
19208;BME280;9737;59.466;18.036;2023-01-01T03:40:18;95706.41;;;-0.77;83.21
19208;BME280;9737;59.466;18.036;2023-01-01T03:42:49;95674.91;;;-0.84;83.39
19208;BME280;9737;59.466;18.036;2023-01-01T03:45:21;95648.13;;;-0.94;83.25
19208;BME280;9737;59.466;18.036;2023-01-01T03:47:53;95626.63;;;-0.96;83.28
19208;BME280;9737;59.466;18.036;2023-01-01T03:50:24;95707.06;;;-0.75;83.14
19208;BME280;9737;59.466;18.036;2023-01-01T03:53:00;95725.81;;;-0.72;83.64
19208;BME280;9737;59.466;18.036;2023-01-01T03:55:32;95730.88;;;-0.70;83.66
19208;BME280;9737;59.466;18.036;2023-01-01T03:58:04;95724.03;;;-0.71;83.25
19208;BME280;9737;59.466;18.036;2023-01-01T04:00:42;95695.16;;;-0.78;83.46
19208;BME280;9737;59.466;18.036;2023-01-01T04:03:18;95670.84;;;-0.86;83.71
19208;BME280;9737;59.466;18.036;2023-01-01T04:05:47;95710.47;;;-0.75;83.52
19208;BME280;9737;59.466;18.036;2023-01-01T04:08:15;95773.13;;;-0.58;83.27
19208;BME280;9737;59.466;18.036;2023-01-01T04:10:45;95792.59;;;-0.53;83.68
19208;BME280;9737;59.466;18.036;2023-01-01T04:13:15;95789.97;;;-0.53;83.47
19208;BME280;9737;59.466;18.036;2023-01-01T04:15:43;95775.75;;;-0.58;83.51
19208;BME280;9737;59.466;18.036;2023-01-01T04:18:11;95777.25;;;-0.56;83.20
19208;BME280;9737;59.466;18.036;2023-01-01T04:20:40;95774.81;;;-0.57;83.80
19208;BME280;9737;59.466;18.036;2023-01-01T04:23:08;95799.44;;;-0.52;83.43
19208;BME280;9737;59.466;18.036;2023-01-01T04:25:36;95824.25;;;-0.48;83.89
19208;BME280;9737;59.466;18.036;2023-01-01T04:28:04;95828.19;;;-0.44;83.49
19208;BME280;9737;59.466;18.036;2023-01-01T04:30:32;95839.28;;;-0.42;83.91
19208;BME280;9737;59.466;18.036;2023-01-01T04:32:59;95855.28;;;-0.37;83.82
19208;BME280;9737;59.466;18.036;2023-01-01T04:35:27;95818.06;;;-0.47;83.52
19208;BME280;9737;59.466;18.036;2023-01-01T04:37:56;95763.84;;;-0.61;83.62
19208;BME280;9737;59.466;18.036;2023-01-01T04:40:24;95742.63;;;-0.66;83.98
19208;BME280;9737;59.466;18.036;2023-01-01T04:42:52;95716.50;;;-0.74;83.91
19208;BME280;9737;59.466;18.036;2023-01-01T04:45:21;95688.63;;;-0.82;83.67
19208;BME280;9737;59.466;18.036;2023-01-01T04:47:48;95672.47;;;-0.85;83.63
19208;BME280;9737;59.466;18.036;2023-01-01T04:50:16;95662.31;;;-0.88;83.63
19208;BME280;9737;59.466;18.036;2023-01-01T04:52:44;95652.22;;;-0.91;83.64
19208;BME280;9737;59.466;18.036;2023-01-01T04:55:18;95642.91;;;-0.94;83.67
19208;BME280;9737;59.466;18.036;2023-01-01T04:57:46;95623.19;;;-0.97;83.80
19208;BME280;9737;59.466;18.036;2023-01-01T05:00:14;95635.91;;;-0.94;83.39
19208;BME280;9737;59.466;18.036;2023-01-01T05:02:42;95643.75;;;-0.94;83.55
19208;BME280;9737;59.466;18.036;2023-01-01T05:05:10;95649.78;;;-0.93;83.45
19208;BME280;9737;59.466;18.036;2023-01-01T05:07:38;95619.94;;;-0.99;83.98
19208;BME280;9737;59.466;18.036;2023-01-01T05:10:07;95598.72;;;-1.04;83.78
19208;BME280;9737;59.466;18.036;2023-01-01T05:12:36;95578.69;;;-1.11;83.66
19208;BME280;9737;59.466;18.036;2023-01-01T05:15:04;95558.97;;;-1.14;83.44
19208;BME280;9737;59.466;18.036;2023-01-01T05:17:32;95554.84;;;-1.16;83.89
19208;BME280;9737;59.466;18.036;2023-01-01T05:20:00;95535.47;;;-1.22;83.70
19208;BME280;9737;59.466;18.036;2023-01-01T05:22:29;95512.50;;;-1.27;83.46
19208;BME280;9737;59.466;18.036;2023-01-01T05:24:57;95490.50;;;-1.32;83.78
19208;BME280;9737;59.466;18.036;2023-01-01T05:27:25;95483.97;;;-1.36;83.38
19208;BME280;9737;59.466;18.036;2023-01-01T05:29:54;95463.44;;;-1.39;83.39
19208;BME280;9737;59.466;18.036;2023-01-01T05:32:22;95462.63;;;-1.40;83.43
19208;BME280;9737;59.466;18.036;2023-01-01T05:34:50;95466.88;;;-1.39;83.79
19208;BME280;9737;59.466;18.036;2023-01-01T05:37:18;95464.41;;;-1.40;83.66
19208;BME280;9737;59.466;18.036;2023-01-01T05:39:46;95455.94;;;-1.42;83.61
19208;BME280;9737;59.466;18.036;2023-01-01T05:42:14;95442.28;;;-1.44;83.66
19208;BME280;9737;59.466;18.036;2023-01-01T05:44:44;95438.97;;;-1.46;83.57
19208;BME280;9737;59.466;18.036;2023-01-01T05:47:13;95433.78;;;-1.46;83.75
19208;BME280;9737;59.466;18.036;2023-01-01T05:49:43;95444.88;;;-1.44;83.95
19208;BME280;9737;59.466;18.036;2023-01-01T05:52:11;95452.69;;;-1.44;83.51
19208;BME280;9737;59.466;18.036;2023-01-01T05:54:38;95454.31;;;-1.43;84.01
19208;BME280;9737;59.466;18.036;2023-01-01T05:57:06;95451.72;;;-1.43;83.58
19208;BME280;9737;59.466;18.036;2023-01-01T05:59:34;95452.69;;;-1.44;83.74
19208;BME280;9737;59.466;18.036;2023-01-01T06:02:02;95447.47;;;-1.44;83.80
19208;BME280;9737;59.466;18.036;2023-01-01T06:04:31;95471.25;;;-1.39;83.59
19208;BME280;9737;59.466;18.036;2023-01-01T06:06:59;95470.44;;;-1.40;83.54
19208;BME280;9737;59.466;18.036;2023-01-01T06:09:27;95458.41;;;-1.41;83.77
19208;BME280;9737;59.466;18.036;2023-01-01T06:11:55;95465.06;;;-1.38;83.64
19208;BME280;9737;59.466;18.036;2023-01-01T06:14:22;95483.00;;;-1.35;83.75
19208;BME280;9737;59.466;18.036;2023-01-01T06:16:50;95472.91;;;-1.38;83.76
19208;BME280;9737;59.466;18.036;2023-01-01T06:19:18;95454.16;;;-1.42;83.55
19208;BME280;9737;59.466;18.036;2023-01-01T06:21:47;95451.56;;;-1.42;84.09
19208;BME280;9737;59.466;18.036;2023-01-01T06:24:15;95438.97;;;-1.46;84.00
19208;BME280;9737;59.466;18.036;2023-01-01T06:26:43;95420.41;;;-1.51;83.82
19208;BME280;9737;59.466;18.036;2023-01-01T06:29:11;95411.13;;;-1.54;84.00
19208;BME280;9737;59.466;18.036;2023-01-01T06:31:39;95407.88;;;-1.56;83.98
19208;BME280;9737;59.466;18.036;2023-01-01T06:34:07;95426.13;;;-1.48;83.89
19208;BME280;9737;59.466;18.036;2023-01-01T06:36:35;95427.91;;;-1.48;83.70
19208;BME280;9737;59.466;18.036;2023-01-01T06:39:04;95413.56;;;-1.52;83.85
19208;BME280;9737;59.466;18.036;2023-01-01T06:41:32;95396.97;;;-1.60;83.96
19208;BME280;9737;59.466;18.036;2023-01-01T06:44:00;95373.03;;;-1.63;83.71
19208;BME280;9737;59.466;18.036;2023-01-01T06:46:29;95357.09;;;-1.68;83.79
19208;BME280;9737;59.466;18.036;2023-01-01T06:48:59;95328.25;;;-1.75;83.80
19208;BME280;9737;59.466;18.036;2023-01-01T06:51:29;95308.06;;;-1.81;83.78
19208;BME280;9737;59.466;18.036;2023-01-01T06:53:58;95302.84;;;-1.81;83.96
19208;BME280;9737;59.466;18.036;2023-01-01T06:56:28;95291.13;;;-1.85;83.98
19208;BME280;9737;59.466;18.036;2023-01-01T06:58:56;95254.00;;;-2.03;83.88
19208;BME280;9737;59.466;18.036;2023-01-01T07:01:26;95290.97;;;-1.83;84.21
19208;BME280;9737;59.466;18.036;2023-01-01T07:03:55;95297.00;;;-1.83;83.90
19208;BME280;9737;59.466;18.036;2023-01-01T07:06:24;95291.13;;;-1.85;83.71
19208;BME280;9737;59.466;18.036;2023-01-01T07:08:52;95278.28;;;-1.87;84.07
19208;BME280;9737;59.466;18.036;2023-01-01T07:11:20;95282.03;;;-1.89;84.08
19208;BME280;9737;59.466;18.036;2023-01-01T07:13:49;95272.59;;;-1.90;83.76
19208;BME280;9737;59.466;18.036;2023-01-01T07:16:17;95267.38;;;-1.90;84.15
19208;BME280;9737;59.466;18.036;2023-01-01T07:18:45;95260.72;;;-1.93;83.65
19208;BME280;9737;59.466;18.036;2023-01-01T07:21:27;95242.16;;;-1.98;83.72
19208;BME280;9737;59.466;18.036;2023-01-01T07:23:57;95241.34;;;-1.98;84.11
19208;BME280;9737;59.466;18.036;2023-01-01T07:26:25;95222.78;;;-2.03;84.08
19208;BME280;9737;59.466;18.036;2023-01-01T07:28:56;95194.97;;;-2.11;83.97
19208;BME280;9737;59.466;18.036;2023-01-01T07:31:33;95167.16;;;-2.19;83.75
19208;BME280;9737;59.466;18.036;2023-01-01T07:34:01;95158.69;;;-2.21;83.95
19208;BME280;9737;59.466;18.036;2023-01-01T07:36:30;95144.41;;;-2.25;84.16
19208;BME280;9737;59.466;18.036;2023-01-01T07:38:58;95127.50;;;-2.29;83.99
19208;BME280;9737;59.466;18.036;2023-01-01T07:41:26;95104.69;;;-2.35;84.20
19208;BME280;9737;59.466;18.036;2023-01-01T07:43:53;95074.31;;;-2.42;83.99
19208;BME280;9737;59.466;18.036;2023-01-01T07:46:22;95027.69;;;-2.60;84.06
19208;BME280;9737;59.466;18.036;2023-01-01T07:48:50;95036.28;;;-2.52;84.12
19208;BME280;9737;59.466;18.036;2023-01-01T07:51:18;95035.47;;;-2.52;84.05
19208;BME280;9737;59.466;18.036;2023-01-01T07:53:46;95015.34;;;-2.58;84.16
19208;BME280;9737;59.466;18.036;2023-01-01T07:56:14;95001.81;;;-2.62;83.90
19208;BME280;9737;59.466;18.036;2023-01-01T07:58:42;94978.25;;;-2.68;83.88
19208;BME280;9737;59.466;18.036;2023-01-01T08:01:10;95023.78;;;-2.56;83.81
19208;BME280;9737;59.466;18.036;2023-01-01T08:03:40;95044.72;;;-2.50;83.92
19208;BME280;9737;59.466;18.036;2023-01-01T08:06:09;95033.53;;;-2.50;83.95
19208;BME280;9737;59.466;18.036;2023-01-01T08:08:37;95037.75;;;-2.49;84.06
19208;BME280;9737;59.466;18.036;2023-01-01T08:11:05;95091.84;;;-2.36;83.93
19208;BME280;9737;59.466;18.036;2023-01-01T08:13:33;95097.06;;;-2.36;84.24
19208;BME280;9737;59.466;18.036;2023-01-01T08:16:01;95054.00;;;-2.47;84.36
19208;BME280;9737;59.466;18.036;2023-01-01T08:18:29;95055.63;;;-2.46;84.16
19208;BME280;9737;59.466;18.036;2023-01-01T08:20:59;95017.75;;;-2.57;84.16
19208;BME280;9737;59.466;18.036;2023-01-01T08:23:26;94982.50;;;-2.67;84.18
19208;BME280;9737;59.466;18.036;2023-01-01T08:25:57;94945.28;;;-2.76;83.91
19208;BME280;9737;59.466;18.036;2023-01-01T08:28:27;94952.44;;;-2.78;84.08
19208;BME280;9737;59.466;18.036;2023-01-01T08:30:55;94934.41;;;-2.79;84.03
19208;BME280;9737;59.466;18.036;2023-01-01T08:33:23;94911.03;;;-2.88;84.13
19208;BME280;9737;59.466;18.036;2023-01-01T08:35:51;94895.75;;;-2.91;84.47
19208;BME280;9737;59.466;18.036;2023-01-01T08:38:21;94863.63;;;-2.98;83.94
19208;BME280;9737;59.466;18.036;2023-01-01T08:40:49;94847.53;;;-3.01;83.97
19208;BME280;9737;59.466;18.036;2023-01-01T08:43:17;94830.19;;;-3.09;84.37
19208;BME280;9737;59.466;18.036;2023-01-01T08:45:45;94832.47;;;-3.06;84.29
19208;BME280;9737;59.466;18.036;2023-01-01T08:48:12;94815.41;;;-3.08;84.17
19208;BME280;9737;59.466;18.036;2023-01-01T08:50:40;94810.72;;;-3.13;83.96
19208;BME280;9737;59.466;18.036;2023-01-01T08:53:08;94798.88;;;-3.16;84.10
19208;BME280;9737;59.466;18.036;2023-01-01T08:55:37;94800.97;;;-3.11;84.03
19208;BME280;9737;59.466;18.036;2023-01-01T08:58:05;94822.56;;;-3.10;84.10
19208;BME280;9737;59.466;18.036;2023-01-01T09:00:34;94814.13;;;-3.13;84.23
19208;BME280;9737;59.466;18.036;2023-01-01T09:03:01;94814.13;;;-3.13;84.35
19208;BME280;9737;59.466;18.036;2023-01-01T09:05:30;94813.97;;;-3.11;84.16
19208;BME280;9737;59.466;18.036;2023-01-01T09:07:57;94849.34;;;-3.02;84.24
19208;BME280;9737;59.466;18.036;2023-01-01T09:10:25;94883.75;;;-2.92;84.26
19208;BME280;9737;59.466;18.036;2023-01-01T09:12:54;94936.84;;;-2.78;84.12
19208;BME280;9737;59.466;18.036;2023-01-01T09:15:22;94989.97;;;-2.64;84.40
19208;BME280;9737;59.466;18.036;2023-01-01T09:17:50;95074.16;;;-2.41;84.42
19208;BME280;9737;59.466;18.036;2023-01-01T09:20:18;95097.06;;;-2.36;84.20
19208;BME280;9737;59.466;18.036;2023-01-01T09:22:46;95105.34;;;-2.33;84.18
19208;BME280;9737;59.466;18.036;2023-01-01T09:25:13;95124.56;;;-2.26;84.49
19208;BME280;9737;59.466;18.036;2023-01-01T09:27:42;95145.84;;;-2.22;84.00
19208;BME280;9737;59.466;18.036;2023-01-01T09:30:12;95171.06;;;-2.14;84.37
19208;BME280;9737;59.466;18.036;2023-01-01T09:32:40;95196.25;;;-2.07;84.23
19208;BME280;9737;59.466;18.036;2023-01-01T09:35:08;95219.88;;;-2.00;84.08
19208;BME280;9737;59.466;18.036;2023-01-01T09:37:36;95262.34;;;-1.92;84.06
19208;BME280;9737;59.466;18.036;2023-01-01T09:40:05;95295.03;;;-1.81;84.72
19208;BME280;9737;59.466;18.036;2023-01-01T09:42:38;95314.41;;;-1.75;84.51
19208;BME280;9737;59.466;18.036;2023-01-01T09:45:19;95319.63;;;-1.75;84.19
19208;BME280;9737;59.466;18.036;2023-01-01T09:47:50;95223.59;;;-2.27;84.55
19208;BME280;9737;59.466;18.036;2023-01-01T09:50:20;95284.94;;;-1.84;84.22
19208;BME280;9737;59.466;18.036;2023-01-01T09:52:51;95288.19;;;-1.90;84.32
19208;BME280;9737;59.466;18.036;2023-01-01T09:55:26;95287.56;;;-1.84;84.35
19208;BME280;9737;59.466;18.036;2023-01-01T09:57:55;95277.31;;;-1.85;84.10
19208;BME280;9737;59.466;18.036;2023-01-01T10:00:25;95288.53;;;-1.85;84.34
19208;BME280;9737;59.466;18.036;2023-01-01T10:03:05;95307.06;;;-1.80;84.58
19208;BME280;9737;59.466;18.036;2023-01-01T10:05:42;95290.16;;;-1.84;84.40
19208;BME280;9737;59.466;18.036;2023-01-01T10:08:22;95280.88;;;-1.87;84.33
19208;BME280;9737;59.466;18.036;2023-01-01T10:11:00;95273.22;;;-1.88;84.44
19208;BME280;9737;59.466;18.036;2023-01-01T10:13:36;95263.97;;;-1.91;84.69
19208;BME280;9737;59.466;18.036;2023-01-01T10:16:10;95272.41;;;-1.89;84.35
19208;BME280;9737;59.466;18.036;2023-01-01T10:18:40;95275.50;;;-2.01;84.71
19208;BME280;9737;59.466;18.036;2023-01-01T10:21:11;95318.16;;;-1.78;84.41
19208;BME280;9737;59.466;18.036;2023-01-01T10:23:44;95329.88;;;-1.74;84.74
19208;BME280;9737;59.466;18.036;2023-01-01T10:26:16;95340.00;;;-1.71;84.61
19208;BME280;9737;59.466;18.036;2023-01-01T10:28:50;95379.72;;;-1.61;84.70
19208;BME280;9737;59.466;18.036;2023-01-01T10:31:29;95404.13;;;-1.53;84.46
19208;BME280;9737;59.466;18.036;2023-01-01T10:34:00;95426.94;;;-1.47;84.54
19208;BME280;9737;59.466;18.036;2023-01-01T10:36:29;95461.66;;;-1.39;84.36
19208;BME280;9737;59.466;18.036;2023-01-01T10:38:57;95525.69;;;-1.20;84.71
19208;BME280;9737;59.466;18.036;2023-01-01T10:41:25;95682.25;;;-0.79;84.47
19208;BME280;9737;59.466;18.036;2023-01-01T10:43:53;95850.06;;;-0.37;84.35
19208;BME280;9737;59.466;18.036;2023-01-01T10:46:21;96046.66;;;0.16;84.80
19208;BME280;9737;59.466;18.036;2023-01-01T10:49:07;96359.13;;;0.98;85.05
19208;BME280;9737;59.466;18.036;2023-01-01T10:51:41;96782.19;;;2.07;84.72
19208;BME280;9737;59.466;18.036;2023-01-01T10:54:26;97155.25;;;3.01;84.71
19208;BME280;9737;59.466;18.036;2023-01-01T10:56:58;97476.59;;;3.85;84.69
19208;BME280;9737;59.466;18.036;2023-01-01T10:59:32;97463.19;;;3.79;84.74
19208;BME280;9737;59.466;18.036;2023-01-01T11:02:14;97263.09;;;3.27;84.61
19208;BME280;9737;59.466;18.036;2023-01-01T11:04:44;97259.94;;;3.23;84.85
19208;BME280;9737;59.466;18.036;2023-01-01T11:07:18;97226.34;;;3.17;85.08
19208;BME280;9737;59.466;18.036;2023-01-01T11:09:48;97084.63;;;2.80;85.13
19208;BME280;9737;59.466;18.036;2023-01-01T11:12:32;97085.44;;;2.80;84.98
19208;BME280;9737;59.466;18.036;2023-01-01T11:15:34;97156.38;;;2.98;85.23
19208;BME280;9737;59.466;18.036;2023-01-01T11:18:04;97214.47;;;3.13;85.28
19208;BME280;9737;59.466;18.036;2023-01-01T11:20:34;97070.13;;;2.76;85.08
19208;BME280;9737;59.466;18.036;2023-01-01T11:23:17;96875.59;;;2.26;85.04
19208;BME280;9737;59.466;18.036;2023-01-01T11:25:59;96760.97;;;2.00;84.88
19208;BME280;9737;59.466;18.036;2023-01-01T11:28:28;96597.81;;;1.54;84.96
19208;BME280;9737;59.466;18.036;2023-01-01T11:31:00;96474.47;;;1.22;85.28
19208;BME280;9737;59.466;18.036;2023-01-01T11:33:32;96441.34;;;1.13;84.80
19208;BME280;9737;59.466;18.036;2023-01-01T11:36:04;96352.88;;;0.90;85.03
19208;BME280;9737;59.466;18.036;2023-01-01T11:38:33;96291.63;;;0.75;85.13
19208;BME280;9737;59.466;18.036;2023-01-01T11:41:03;96180.28;;;0.47;85.06
19208;BME280;9737;59.466;18.036;2023-01-01T11:43:37;96136.22;;;0.26;84.92
19208;BME280;9737;59.466;18.036;2023-01-01T11:46:08;96154.94;;;0.39;84.74
19208;BME280;9737;59.466;18.036;2023-01-01T11:48:41;96244.66;;;0.66;84.96
19208;BME280;9737;59.466;18.036;2023-01-01T11:51:28;96256.75;;;0.67;84.84
19208;BME280;9737;59.466;18.036;2023-01-01T11:54:18;96197.97;;;0.53;85.00
19208;BME280;9737;59.466;18.036;2023-01-01T11:56:50;96105.66;;;0.26;85.24
19208;BME280;9737;59.466;18.036;2023-01-01T11:59:23;96016.41;;;0.05;85.22
19208;BME280;9737;59.466;18.036;2023-01-01T12:01:54;95936.16;;;-0.19;84.77
19208;BME280;9737;59.466;18.036;2023-01-01T12:04:28;95876.97;;;-0.36;85.41
19208;BME280;9737;59.466;18.036;2023-01-01T12:07:03;95790.13;;;-0.54;85.00
19208;BME280;9737;59.466;18.036;2023-01-01T12:09:37;95721.72;;;-0.74;85.19
19208;BME280;9737;59.466;18.036;2023-01-01T12:12:12;95677.69;;;-0.85;85.29
19208;BME280;9737;59.466;18.036;2023-01-01T12:14:46;95615.69;;;-1.00;84.73
19208;BME280;9737;59.466;18.036;2023-01-01T12:17:19;95575.25;;;-1.12;84.92
19208;BME280;9737;59.466;18.036;2023-01-01T12:19:55;95537.09;;;-1.21;85.06
19208;BME280;9737;59.466;18.036;2023-01-01T12:22:26;95510.84;;;-1.28;84.84
19208;BME280;9737;59.466;18.036;2023-01-01T12:24:55;95501.06;;;-1.34;84.80
19208;BME280;9737;59.466;18.036;2023-01-01T12:27:46;95503.19;;;-1.29;84.85
19208;BME280;9737;59.466;18.036;2023-01-01T12:30:20;95496.34;;;-1.30;84.92
19208;BME280;9737;59.466;18.036;2023-01-01T12:33:03;95496.34;;;-1.30;85.08
19208;BME280;9737;59.466;18.036;2023-01-01T12:35:46;95487.56;;;-1.37;84.72
19208;BME280;9737;59.466;18.036;2023-01-01T12:38:31;95484.94;;;-1.37;84.72
19208;BME280;9737;59.466;18.036;2023-01-01T12:41:07;95469.63;;;-1.40;84.84
19208;BME280;9737;59.466;18.036;2023-01-01T12:43:42;95483.97;;;-1.36;85.11
19208;BME280;9737;59.466;18.036;2023-01-01T12:46:17;95509.88;;;-1.27;84.76
19208;BME280;9737;59.466;18.036;2023-01-01T12:48:59;95468.81;;;-1.41;85.03
19208;BME280;9737;59.466;18.036;2023-01-01T12:51:40;95419.75;;;-1.53;84.82
19208;BME280;9737;59.466;18.036;2023-01-01T12:57:28;95337.69;;;-1.74;85.04
19208;BME280;9737;59.466;18.036;2023-01-01T13:00:01;95331.81;;;-1.76;84.79
19208;BME280;9737;59.466;18.036;2023-01-01T13:02:32;95319.13;;;-1.79;84.60
19208;BME280;9737;59.466;18.036;2023-01-01T13:05:06;95310.66;;;-1.81;84.79
19208;BME280;9737;59.466;18.036;2023-01-01T13:07:39;95292.75;;;-1.92;84.88
19208;BME280;9737;59.466;18.036;2023-01-01T13:10:24;95356.25;;;-1.69;85.03
19208;BME280;9737;59.466;18.036;2023-01-01T13:12:54;95357.25;;;-1.70;85.21
19208;BME280;9737;59.466;18.036;2023-01-01T13:15:45;95324.00;;;-1.76;84.69
19208;BME280;9737;59.466;18.036;2023-01-01T13:18:25;95308.38;;;-1.84;84.71
19208;BME280;9737;59.466;18.036;2023-01-01T13:20:56;95277.63;;;-1.89;84.98
19208;BME280;9737;59.466;18.036;2023-01-01T13:23:42;95257.44;;;-1.95;85.02
19208;BME280;9737;59.466;18.036;2023-01-01T13:26:33;95237.28;;;-2.01;84.94
19208;BME280;9737;59.466;18.036;2023-01-01T13:29:30;95198.38;;;-2.10;84.72